Time;durP1;ratioP1;P1;durP2;ratioP2;P2;SDS_P1;SDS_P2;PMS_P1;PMS_P2;Temp;Humidity;BMP_temperature;BMP_pressure;BME280_temperature;BME280_humidity;BME280_pressure;Samples;Min_cycle;Max_cycle;Signal;HPM_P1;HPM_P2
2023/06/30 00:01:22;;;;;;;6.00;3.35;;;;;;;;;;10505574;28;20037;-76
2023/06/30 00:06:26;;;;;;;9.57;3.72;;;;;;;;;;10504020;28;20512;-76
2023/06/30 00:11:29;;;;;;;6.65;3.70;;;;;;;;;;10506680;28;20044;-77
2023/06/30 00:16:32;;;;;;;6.88;3.58;;;;;;;;;;10520685;28;20521;-77
2023/06/30 00:21:41;;;;;;;6.68;3.63;;;;;;;;;;10511849;28;20071;-77
2023/06/30 00:26:45;;;;;;;5.40;3.55;;;;;;;;;;10517286;28;20494;-76
2023/06/30 00:31:48;;;;;;;6.75;3.90;;;;;;;;;;10530078;28;20139;-76
2023/06/30 00:36:51;;;;;;;;;;;;;;;;;;10511046;28;20032;-77
2023/06/30 00:41:55;;;;;;;4.75;3.70;;;;;;;;;;10508629;28;19967;-77
2023/06/30 00:47:00;;;;;;;10.30;3.90;;;;;;;;;;10506835;28;20187;-77
2023/06/30 00:52:04;;;;;;;5.65;3.70;;;;;;;;;;10499734;28;20399;-76
2023/06/30 00:57:07;;;;;;;;;;;;;;;;;;10501864;28;20138;-76
2023/06/30 01:02:13;;;;;;;6.50;4.00;;;;;;;;;;10507995;28;19921;-76
2023/06/30 01:07:19;;;;;;;5.72;3.70;;;;;;;;;;10521105;28;20048;-77
2023/06/30 01:12:23;;;;;;;7.25;4.05;;;;;;;;;;10511681;28;20044;-76
2023/06/30 01:17:28;;;;;;;7.47;3.90;;;;;;;;;;10524899;28;20074;-75
2023/06/30 01:22:34;;;;;;;7.68;4.55;;;;;;;;;;10499425;28;20052;-75
2023/06/30 01:27:37;;;;;;;5.68;4.13;;;;;;;;;;10511617;28;20443;-75
2023/06/30 01:32:41;;;;;;;8.55;4.10;;;;;;;;;;10500853;28;20044;-75
2023/06/30 01:37:44;;;;;;;5.00;4.07;;;;;;;;;;10503405;28;20601;-76
2023/06/30 01:42:48;;;;;;;6.03;4.30;;;;;;;;;;10500871;28;20497;-77
2023/06/30 01:47:53;;;;;;;8.65;4.55;;;;;;;;;;10511886;28;20127;-76
2023/06/30 01:52:56;;;;;;;6.05;4.45;;;;;;;;;;10511880;28;20044;-77
2023/06/30 01:57:59;;;;;;;6.70;4.00;;;;;;;;;;10517494;28;20135;-76
2023/06/30 02:03:04;;;;;;;8.88;4.63;;;;;;;;;;10505531;28;20032;-76
2023/06/30 02:08:06;;;;;;;7.07;4.40;;;;;;;;;;10506705;28;20044;-77
2023/06/30 02:13:09;;;;;;;7.33;4.40;;;;;;;;;;10518232;28;20123;-76
2023/06/30 02:18:14;;;;;;;8.82;4.45;;;;;;;;;;10510665;28;20406;-76
2023/06/30 02:23:16;;;;;;;8.63;5.05;;;;;;;;;;10503761;28;20037;-75
2023/06/30 02:28:19;;;;;;;8.45;4.35;;;;;;;;;;10497551;28;20047;-76
2023/06/30 02:33:23;;;;;;;10.03;4.53;;;;;;;;;;10502780;28;20404;-77
2023/06/30 02:38:26;;;;;;;7.95;4.35;;;;;;;;;;10507549;28;20530;-77
2023/06/30 02:43:28;;;;;;;6.83;3.73;;;;;;;;;;10502447;28;20115;-76
2023/06/30 02:48:33;;;;;;;8.60;4.18;;;;;;;;;;10519064;28;20044;-78
2023/06/30 02:53:35;;;;;;;9.00;4.57;;;;;;;;;;10515117;28;20040;-78
2023/06/30 02:58:39;;;;;;;6.22;3.97;;;;;;;;;;10515578;28;20044;-78
2023/06/30 03:03:43;;;;;;;7.88;4.90;;;;;;;;;;10513517;28;20627;-77
2023/06/30 03:08:46;;;;;;;7.13;4.22;;;;;;;;;;10502866;28;20151;-77
2023/06/30 03:13:49;;;;;;;8.95;4.28;;;;;;;;;;10499492;28;20042;-77
2023/06/30 03:18:53;;;;;;;9.90;4.68;;;;;;;;;;10495846;28;20045;-76
2023/06/30 03:23:56;;;;;;;8.00;4.53;;;;;;;;;;10485932;28;20096;-76
2023/06/30 03:29:00;;;;;;;11.63;5.90;;;;;;;;;;10496579;28;20048;-76
2023/06/30 03:34:05;;;;;;;7.38;4.88;;;;;;;;;;10508553;28;20043;-77
2023/06/30 03:39:08;;;;;;;8.90;5.03;;;;;;;;;;10521689;28;20071;-77
2023/06/30 03:44:11;;;;;;;11.83;5.30;;;;;;;;;;10515265;28;20072;-77
2023/06/30 03:49:15;;;;;;;9.50;5.43;;;;;;;;;;10526709;28;20051;-76
2023/06/30 03:54:19;;;;;;;9.68;4.78;;;;;;;;;;10522508;28;20127;-77
2023/06/30 03:59:21;;;;;;;9.35;5.03;;;;;;;;;;10515103;28;20044;-77
2023/06/30 04:04:26;;;;;;;8.10;4.78;;;;;;;;;;10510557;28;20124;-76
2023/06/30 04:09:29;;;;;;;7.88;4.93;;;;;;;;;;10512753;28;20059;-76
2023/06/30 04:14:32;;;;;;;13.48;6.20;;;;;;;;;;10506470;28;20052;-76
2023/06/30 04:19:36;;;;;;;8.00;5.10;;;;;;;;;;10502866;28;20040;-76
2023/06/30 04:24:39;;;;;;;10.60;6.07;;;;;;;;;;10516463;28;20386;-77
2023/06/30 04:29:42;;;;;;;11.83;6.57;;;;;;;;;;10510309;28;20047;-76
2023/06/30 04:34:46;;;;;;;11.43;6.25;;;;;;;;;;10520751;28;20123;-76
2023/06/30 04:39:50;;;;;;;11.52;7.03;;;;;;;;;;10524922;28;20045;-77
2023/06/30 04:44:52;;;;;;;;;;;;;;;;;;10516203;28;20044;-76
2023/06/30 04:49:57;;;;;;;17.15;7.60;;;;;;;;;;10508182;28;20285;-76
2023/06/30 04:55:00;;;;;;;14.27;7.55;;;;;;;;;;10501253;28;20393;-76
2023/06/30 05:00:03;;;;;;;17.23;8.07;;;;;;;;;;10499875;28;20042;-77
2023/06/30 05:05:07;;;;;;;15.48;8.75;;;;;;;;;;10510289;28;20123;-77
2023/06/30 05:10:10;;;;;;;14.68;8.57;;;;;;;;;;10511079;28;20048;-75
2023/06/30 05:15:13;;;;;;;16.17;8.37;;;;;;;;;;10515261;28;20139;-75
2023/06/30 05:20:17;;;;;;;17.17;7.50;;;;;;;;;;10520485;28;20294;-76
2023/06/30 05:25:20;;;;;;;11.77;6.57;;;;;;;;;;10501970;28;20306;-77
2023/06/30 05:30:22;;;;;;;13.60;7.70;;;;;;;;;;10506019;28;20135;-77
2023/06/30 05:35:26;;;;;;;15.53;8.13;;;;;;;;;;10498437;28;20744;-77
2023/06/30 05:40:29;;;;;;;14.75;8.20;;;;;;;;;;10504892;28;20389;-76
2023/06/30 05:45:32;;;;;;;14.67;7.50;;;;;;;;;;10502474;28;20127;-78
2023/06/30 05:50:36;;;;;;;12.93;6.63;;;;;;;;;;10499623;28;20879;-77
2023/06/30 05:55:38;;;;;;;14.27;7.40;;;;;;;;;;10497702;28;20070;-76
2023/06/30 06:00:41;;;;;;;14.47;7.47;;;;;;;;;;10513727;28;20048;-75
2023/06/30 06:05:45;;;;;;;14.37;7.57;;;;;;;;;;10507901;28;20121;-75
2023/06/30 06:10:48;;;;;;;15.23;7.55;;;;;;;;;;10526130;28;20313;-89
2023/06/30 06:15:51;;;;;;;13.70;7.47;;;;;;;;;;10496695;28;20119;-85
2023/06/30 06:20:55;;;;;;;20.13;8.20;;;;;;;;;;10515414;28;20128;-86
2023/06/30 06:25:58;;;;;;;15.32;8.02;;;;;;;;;;10517814;28;20122;-87
2023/06/30 06:31:01;;;;;;;19.27;9.30;;;;;;;;;;10513267;28;20058;-85
2023/06/30 06:36:05;;;;;;;17.45;8.35;;;;;;;;;;10503189;28;20214;-82
2023/06/30 06:41:08;;;;;;;17.65;8.77;;;;;;;;;;10497128;28;20028;-88
2023/06/30 06:46:11;;;;;;;18.48;9.38;;;;;;;;;;10508121;28;20044;-90
2023/06/30 06:51:15;;;;;;;19.67;9.70;;;;;;;;;;10505425;28;20054;-89
2023/06/30 06:56:19;;;;;;;19.70;9.05;;;;;;;;;;10511742;28;20056;-87
2023/06/30 07:01:22;;;;;;;21.33;10.27;;;;;;;;;;10517085;28;20071;-87
2023/06/30 07:06:25;;;;;;;;;;;;;;;;;;10514793;28;20052;-88
2023/06/30 07:11:29;;;;;;;19.77;8.32;;;;;;;;;;10517419;28;19953;-88
2023/06/30 07:16:32;;;;;;;15.50;7.25;;;;;;;;;;10520500;28;20155;-89
2023/06/30 07:21:35;;;;;;;24.20;10.20;;;;;;;;;;10514901;28;20052;-91
2023/06/30 07:26:39;;;;;;;22.83;9.20;;;;;;;;;;10507471;28;20069;-91
2023/06/30 07:31:41;;;;;;;23.38;10.35;;;;;;;;;;10509716;28;20720;-90
2023/06/30 07:36:44;;;;;;;22.58;9.90;;;;;;;;;;10503691;28;20044;-89
2023/06/30 07:41:51;;;;;;;24.50;11.13;;;;;;;;;;10514556;28;20047;-90
2023/06/30 07:46:54;;;;;;;24.88;11.20;;;;;;;;;;10504531;28;20055;-90
2023/06/30 07:51:56;;;;;;;22.70;10.60;;;;;;;;;;10514353;28;20565;-91
2023/06/30 07:57:00;;;;;;;16.90;8.10;;;;;;;;;;10513702;28;20120;-91
2023/06/30 08:02:06;;;;;;;23.90;11.07;;;;;;;;;;10521687;28;20097;-91
2023/06/30 08:07:09;;;;;;;19.17;9.80;;;;;;;;;;10529542;28;20773;-92
2023/06/30 08:12:13;;;;;;;21.30;9.95;;;;;;;;;;10519848;28;20039;-92
2023/06/30 08:17:16;;;;;;;20.90;9.23;;;;;;;;;;10524233;28;20040;-92
2023/06/30 08:22:33;;;;;;;16.15;8.00;;;;;;;;;;10541527;28;20074;-92
2023/06/30 08:27:37;;;;;;;20.95;9.07;;;;;;;;;;10551948;28;20059;-91
2023/06/30 08:32:39;;;;;;;19.58;9.68;;;;;;;;;;10544026;28;20107;-92
2023/06/30 08:37:42;;;;;;;16.80;9.45;;;;;;;;;;10534103;28;20585;-92
2023/06/30 08:42:49;;;;;;;16.95;8.23;;;;;;;;;;10528047;28;20467;-91
2023/06/30 08:47:52;;;;;;;12.40;7.07;;;;;;;;;;10525851;28;20052;-91
2023/06/30 08:52:56;;;;;;;9.63;4.85;;;;;;;;;;10530567;28;20040;-91
2023/06/30 08:58:00;;;;;;;10.95;5.78;;;;;;;;;;10536815;28;20116;-91
2023/06/30 09:03:20;;;;;;;12.32;7.47;;;;;;;;;;10521480;28;20047;-92
2023/06/30 09:08:23;;;;;;;13.30;6.03;;;;;;;;;;10529665;28;20517;-92
2023/06/30 09:13:28;;;;;;;12.30;6.55;;;;;;;;;;10527127;28;20067;-90
2023/06/30 09:18:31;;;;;;;13.38;5.60;;;;;;;;;;10520947;28;20055;-90
2023/06/30 09:23:34;;;;;;;12.40;6.40;;;;;;;;;;10524494;28;20044;-91
2023/06/30 09:28:36;;;;;;;;;;;;;;;;;;10540655;28;20504;-90
2023/06/30 09:33:40;;;;;;;13.82;6.82;;;;;;;;;;10549735;28;19928;-90
2023/06/30 09:38:43;;;;;;;13.00;6.70;;;;;;;;;;10568716;28;20039;-92
2023/06/30 09:43:46;;;;;;;13.27;7.05;;;;;;;;;;10569359;28;20043;-91
2023/06/30 09:48:48;;;;;;;;;;;;;;;;;;10563850;28;20069;-89
2023/06/30 09:53:51;;;;;;;;;;;;;;;;;;10559397;28;19920;-91
2023/06/30 09:58:57;;;;;;;15.63;7.97;;;;;;;;;;10533861;28;20071;-89
2023/06/30 10:04:00;;;;;;;18.15;8.55;;;;;;;;;;10514642;28;20482;-89
2023/06/30 10:09:04;;;;;;;14.57;7.22;;;;;;;;;;10525092;28;20048;-89
2023/06/30 10:14:09;;;;;;;14.77;7.20;;;;;;;;;;10512026;28;20481;-90
2023/06/30 10:19:12;;;;;;;19.13;9.32;;;;;;;;;;10523008;28;20048;-91
2023/06/30 10:24:15;;;;;;;20.40;9.88;;;;;;;;;;10522730;28;20047;-88
2023/06/30 10:29:22;;;;;;;18.23;9.68;;;;;;;;;;10522698;28;20037;-90
2023/06/30 10:34:36;;;;;;;19.05;9.52;;;;;;;;;;10508481;28;20123;-87
2023/06/30 10:39:56;;;;;;;22.17;10.30;;;;;;;;;;10486787;28;20036;-89
2023/06/30 10:45:17;;;;;;;24.23;10.63;;;;;;;;;;10512705;28;20048;-88
2023/06/30 10:50:23;;;;;;;18.05;7.70;;;;;;;;;;10509058;28;20066;-89
2023/06/30 10:55:37;;;;;;;20.77;8.43;;;;;;;;;;10508160;28;20070;-87
2023/06/30 11:01:08;;;;;;;19.35;7.25;;;;;;;;;;10511958;28;20064;-89
2023/06/30 11:06:27;;;;;;;17.05;8.07;;;;;;;;;;10505361;28;20071;-90
2023/06/30 11:11:47;;;;;;;18.88;7.93;;;;;;;;;;10517724;28;20517;-90
2023/06/30 11:17:04;;;;;;;18.92;8.60;;;;;;;;;;10513078;28;20041;-88
2023/06/30 11:22:35;;;;;;;18.20;7.30;;;;;;;;;;10509021;28;20489;-76
2023/06/30 11:27:51;;;;;;;13.32;5.25;;;;;;;;;;10513898;28;20673;-76
2023/06/30 11:33:01;;;;;;;10.40;4.97;;;;;;;;;;10506718;28;20701;-77
2023/06/30 11:38:20;;;;;;;9.55;4.43;;;;;;;;;;10506301;28;20777;-77
2023/06/30 11:43:35;;;;;;;12.55;6.03;;;;;;;;;;10504347;28;20040;-77
2023/06/30 11:48:52;;;;;;;16.15;7.45;;;;;;;;;;10506062;28;20055;-80
2023/06/30 11:54:05;;;;;;;12.68;6.30;;;;;;;;;;10502283;28;20067;-77
2023/06/30 11:59:35;;;;;;;15.93;7.75;;;;;;;;;;10511738;28;20055;-78
2023/06/30 12:05:04;;;;;;;11.63;5.38;;;;;;;;;;10520149;28;20098;-78
2023/06/30 12:10:15;;;;;;;12.43;5.45;;;;;;;;;;10502256;28;20060;-77
2023/06/30 12:15:24;;;;;;;13.35;6.35;;;;;;;;;;10522846;28;20067;-78
2023/06/30 12:20:44;;;;;;;12.00;5.78;;;;;;;;;;10518580;28;20040;-77
2023/06/30 12:26:14;;;;;;;12.73;5.95;;;;;;;;;;10510786;28;20144;-77
2023/06/30 12:31:41;;;;;;;12.23;6.38;;;;;;;;;;10510089;28;20076;-78
2023/06/30 12:36:57;;;;;;;14.27;6.97;;;;;;;;;;10492711;28;20135;-78
2023/06/30 12:42:14;;;;;;;12.45;6.63;;;;;;;;;;10508326;28;20169;-77
2023/06/30 12:47:32;;;;;;;13.85;7.25;;;;;;;;;;10516281;28;20489;-76
2023/06/30 12:52:40;;;;;;;15.27;7.60;;;;;;;;;;10492495;28;20044;-77
2023/06/30 12:57:55;;;;;;;14.52;7.35;;;;;;;;;;10511207;28;20420;-77
2023/06/30 13:03:10;;;;;;;13.45;7.07;;;;;;;;;;10493322;28;20731;-77
2023/06/30 13:08:16;;;;;;;12.77;6.22;;;;;;;;;;10517963;28;20169;-79
2023/06/30 13:13:36;;;;;;;13.77;6.85;;;;;;;;;;10516915;28;20083;-78
2023/06/30 13:18:48;;;;;;;16.52;7.10;;;;;;;;;;10500175;28;20048;-78
2023/06/30 13:23:54;;;;;;;14.55;7.05;;;;;;;;;;10509947;28;20070;-78
2023/06/30 13:29:09;;;;;;;15.23;7.35;;;;;;;;;;10472826;28;20047;-78
2023/06/30 13:34:28;;;;;;;14.45;7.68;;;;;;;;;;10498996;28;20127;-78
2023/06/30 13:39:49;;;;;;;17.10;7.97;;;;;;;;;;10511822;28;20055;-78
2023/06/30 13:45:05;;;;;;;16.83;8.50;;;;;;;;;;10486089;28;20040;-79
2023/06/30 13:50:16;;;;;;;17.80;8.52;;;;;;;;;;10505263;28;20035;-78
2023/06/30 13:55:26;;;;;;;18.55;9.13;;;;;;;;;;10520221;28;20040;-77
2023/06/30 14:00:37;;;;;;;18.58;8.65;;;;;;;;;;10515102;28;20505;-77
2023/06/30 14:05:56;;;;;;;18.92;8.40;;;;;;;;;;10503724;28;20143;-77
2023/06/30 14:11:04;;;;;;;19.48;9.05;;;;;;;;;;10513226;28;20126;-78
2023/06/30 14:16:20;;;;;;;19.80;7.75;;;;;;;;;;10490132;28;20032;-78
2023/06/30 14:21:41;;;;;;;21.80;10.15;;;;;;;;;;10483981;28;20045;-78
2023/06/30 14:26:55;;;;;;;26.40;10.60;;;;;;;;;;10510117;28;20049;-78
2023/06/30 14:31:59;;;;;;;30.15;13.70;;;;;;;;;;10506311;28;20441;-79
2023/06/30 14:37:09;;;;;;;17.92;9.15;;;;;;;;;;10504987;28;20071;-76
2023/06/30 14:42:17;;;;;;;;;;;;;;;;;;10505854;28;20047;-77
2023/06/30 14:47:46;;;;;;;16.60;7.72;;;;;;;;;;10499104;28;20018;-77
2023/06/30 14:52:59;;;;;;;16.58;7.50;;;;;;;;;;10516570;28;20036;-78
2023/06/30 14:58:10;;;;;;;16.95;7.30;;;;;;;;;;10511563;28;20039;-77
2023/06/30 15:03:20;;;;;;;15.65;7.10;;;;;;;;;;10486267;28;20075;-78
2023/06/30 15:08:29;;;;;;;17.48;8.07;;;;;;;;;;10503025;28;20407;-77
2023/06/30 15:13:35;;;;;;;19.23;8.85;;;;;;;;;;10485989;28;20414;-77
2023/06/30 15:18:52;;;;;;;20.13;8.55;;;;;;;;;;10480096;28;20036;-78
2023/06/30 15:24:14;;;;;;;20.45;9.05;;;;;;;;;;10485929;28;20520;-78
2023/06/30 15:29:24;;;;;;;19.23;9.13;;;;;;;;;;10518295;28;20055;-76
2023/06/30 15:34:37;;;;;;;21.83;9.63;;;;;;;;;;10513050;28;20049;-77
2023/06/30 15:39:45;;;;;;;27.10;11.25;;;;;;;;;;10517906;28;20513;-78
2023/06/30 15:44:54;;;;;;;22.73;10.50;;;;;;;;;;10529286;28;20039;-77
2023/06/30 15:50:01;;;;;;;23.33;10.55;;;;;;;;;;10520903;28;20562;-77
2023/06/30 15:55:11;;;;;;;24.48;10.93;;;;;;;;;;10503158;28;20036;-77
2023/06/30 16:00:19;;;;;;;19.98;10.27;;;;;;;;;;10500148;28;20040;-78
2023/06/30 16:05:43;;;;;;;25.50;10.30;;;;;;;;;;10508543;28;20043;-79
2023/06/30 16:10:59;;;;;;;25.33;11.65;;;;;;;;;;10501567;28;20028;-77
2023/06/30 16:16:11;;;;;;;21.90;10.15;;;;;;;;;;10506666;28;20063;-76
2023/06/30 16:21:17;;;;;;;22.52;10.50;;;;;;;;;;10509149;28;20095;-77
2023/06/30 16:26:27;;;;;;;17.92;9.15;;;;;;;;;;10505888;28;20138;-77
2023/06/30 16:32:00;;;;;;;19.40;9.23;;;;;;;;;;10509385;28;20064;-78
2023/06/30 16:37:07;;;;;;;21.10;10.10;;;;;;;;;;10514858;28;20071;-77
2023/06/30 16:42:31;;;;;;;20.85;9.90;;;;;;;;;;10485839;28;20626;-77
2023/06/30 16:47:49;;;;;;;20.38;10.23;;;;;;;;;;10485977;28;20045;-76
2023/06/30 16:52:56;;;;;;;21.75;10.35;;;;;;;;;;10501985;28;20049;-76
2023/06/30 16:58:03;;;;;;;20.83;10.55;;;;;;;;;;10489122;28;20048;-78
2023/06/30 17:03:43;;;;;;;23.70;10.95;;;;;;;;;;10504351;28;20501;-77
2023/06/30 17:14:15;;;;;;;25.92;11.18;;;;;;;;;;10515274;28;20037;-77
2023/06/30 17:19:24;;;;;;;25.42;12.43;;;;;;;;;;10517458;28;20052;-77
2023/06/30 17:24:33;;;;;;;26.77;12.77;;;;;;;;;;10508424;28;20155;-77
2023/06/30 17:29:46;;;;;;;26.98;12.93;;;;;;;;;;10499314;28;20052;-77
2023/06/30 17:34:59;;;;;;;15.50;7.82;;;;;;;;;;10508512;28;20798;-76
2023/06/30 17:40:04;;;;;;;24.48;11.27;;;;;;;;;;10498586;28;20039;-77
2023/06/30 17:45:25;;;;;;;25.33;12.38;;;;;;;;;;10495521;28;20051;-77
2023/06/30 17:50:49;;;;;;;26.23;13.15;;;;;;;;;;10499054;28;20048;-78
2023/06/30 17:55:55;;;;;;;27.00;12.05;;;;;;;;;;10502588;28;20047;-77
2023/06/30 18:01:03;;;;;;;26.90;11.75;;;;;;;;;;10511211;28;20055;-78
2023/06/30 18:06:21;;;;;;;25.90;12.77;;;;;;;;;;10494949;28;20040;-76
2023/06/30 18:11:30;;;;;;;27.88;12.45;;;;;;;;;;10522589;28;20051;-77
2023/06/30 18:16:42;;;;;;;26.48;11.60;;;;;;;;;;10458958;28;20480;-76
2023/06/30 18:21:50;;;;;;;26.58;12.25;;;;;;;;;;10506038;28;20040;-77
2023/06/30 18:27:12;;;;;;;27.58;13.07;;;;;;;;;;10493444;28;20049;-77
2023/06/30 18:32:40;;;;;;;25.48;12.27;;;;;;;;;;10501028;28;20600;-77
2023/06/30 18:37:49;;;;;;;26.58;11.98;;;;;;;;;;10472905;28;20051;-77
2023/06/30 18:42:59;;;;;;;26.25;11.80;;;;;;;;;;10497502;28;20133;-77
2023/06/30 18:48:15;;;;;;;25.73;12.68;;;;;;;;;;10502607;28;20127;-77
2023/06/30 18:53:26;;;;;;;30.05;12.68;;;;;;;;;;10509767;28;20540;-78
2023/06/30 18:58:46;;;;;;;28.20;12.15;;;;;;;;;;10508408;28;20056;-77
2023/06/30 19:03:53;;;;;;;27.70;11.68;;;;;;;;;;10507017;28;20139;-78
2023/06/30 19:09:00;;;;;;;27.17;12.20;;;;;;;;;;10488238;28;20062;-77
2023/06/30 19:14:06;;;;;;;26.60;11.98;;;;;;;;;;10503558;28;20049;-77
2023/06/30 19:19:19;;;;;;;26.40;11.63;;;;;;;;;;10498327;28;20036;-76
2023/06/30 19:24:26;;;;;;;27.95;12.38;;;;;;;;;;10497489;28;20079;-77
2023/06/30 19:29:34;;;;;;;28.35;12.77;;;;;;;;;;10503264;28;20048;-76
2023/06/30 19:34:44;;;;;;;26.38;12.27;;;;;;;;;;10485998;28;20044;-76
2023/06/30 19:39:56;;;;;;;32.13;13.48;;;;;;;;;;10501307;28;20078;-77
2023/06/30 19:45:05;;;;;;;29.40;13.52;;;;;;;;;;10491150;28;20071;-77
2023/06/30 19:50:27;;;;;;;24.77;12.38;;;;;;;;;;10504075;28;20490;-76
2023/06/30 19:55:45;;;;;;;28.77;12.70;;;;;;;;;;10495099;28;20032;-76
2023/06/30 20:00:58;;;;;;;27.27;12.90;;;;;;;;;;10487258;28;20040;-76
2023/06/30 20:06:13;;;;;;;28.17;12.57;;;;;;;;;;10485258;28;20058;-77
2023/06/30 20:11:22;;;;;;;27.67;12.68;;;;;;;;;;10505878;28;20047;-77
2023/06/30 20:16:30;;;;;;;29.35;12.73;;;;;;;;;;10506995;28;20422;-75
2023/06/30 20:21:40;;;;;;;30.90;15.05;;;;;;;;;;10502695;28;20052;-77
2023/06/30 20:26:50;;;;;;;29.85;14.35;;;;;;;;;;10492155;28;20056;-77
2023/06/30 20:32:00;;;;;;;44.75;20.00;;;;;;;;;;10496137;28;20052;-77
2023/06/30 20:42:45;;;;;;;42.17;18.17;;;;;;;;;;10509796;28;20108;-76
2023/06/30 20:47:52;;;;;;;44.92;19.08;;;;;;;;;;10529059;28;20064;-76
2023/06/30 20:53:13;;;;;;;45.90;19.02;;;;;;;;;;10510595;28;20061;-77
2023/06/30 20:58:19;;;;;;;41.75;18.70;;;;;;;;;;10515771;28;20660;-77
2023/06/30 21:03:33;;;;;;;45.80;19.33;;;;;;;;;;10518253;28;20139;-76
2023/06/30 21:08:45;;;;;;;50.17;21.02;;;;;;;;;;10519667;28;20052;-78
2023/06/30 21:13:54;;;;;;;51.70;20.55;;;;;;;;;;10514434;28;20048;-77
2023/06/30 21:19:05;;;;;;;48.03;20.13;;;;;;;;;;10496793;28;20131;-78
2023/06/30 21:24:13;;;;;;;48.33;20.42;;;;;;;;;;10516763;28;20040;-77
2023/06/30 21:29:28;;;;;;;54.60;22.10;;;;;;;;;;10513033;28;20149;-77
2023/06/30 21:34:38;;;;;;;54.28;22.30;;;;;;;;;;10494221;28;20047;-77
2023/06/30 21:39:44;;;;;;;50.45;21.02;;;;;;;;;;10511749;28;20053;-76
2023/06/30 21:44:50;;;;;;;51.17;19.02;;;;;;;;;;10519710;28;20566;-76
2023/06/30 21:49:59;;;;;;;49.30;19.75;;;;;;;;;;10504707;28;20036;-76
2023/06/30 21:55:08;;;;;;;47.90;19.17;;;;;;;;;;10506338;28;20109;-76
2023/06/30 22:00:13;;;;;;;45.80;18.25;;;;;;;;;;10496787;28;20542;-76
2023/06/30 22:05:18;;;;;;;48.30;19.50;;;;;;;;;;10504972;28;20568;-76
2023/06/30 22:10:34;;;;;;;49.75;19.55;;;;;;;;;;10512200;28;20433;-77
2023/06/30 22:15:40;;;;;;;47.80;19.17;;;;;;;;;;10513232;28;20544;-77
2023/06/30 22:20:49;;;;;;;45.45;18.88;;;;;;;;;;10491677;28;20044;-75
2023/06/30 22:26:00;;;;;;;46.28;19.08;;;;;;;;;;10511610;28;20119;-76
2023/06/30 22:31:07;;;;;;;44.78;16.75;;;;;;;;;;10501919;28;20438;-75
2023/06/30 22:41:37;;;;;;;44.75;17.48;;;;;;;;;;10503736;28;20118;-76
2023/06/30 22:46:48;;;;;;;44.65;17.17;;;;;;;;;;10515590;28;20477;-77
2023/06/30 22:51:59;;;;;;;39.95;16.73;;;;;;;;;;10502326;28;20044;-76
2023/06/30 22:57:16;;;;;;;38.00;15.27;;;;;;;;;;10522297;28;20167;-77
2023/06/30 23:02:21;;;;;;;40.92;15.30;;;;;;;;;;10479632;28;20055;-76
2023/06/30 23:07:26;;;;;;;44.75;17.45;;;;;;;;;;10526696;28;20036;-76
2023/06/30 23:12:35;;;;;;;42.15;17.10;;;;;;;;;;10520341;28;20485;-76
2023/06/30 23:17:47;;;;;;;46.67;17.30;;;;;;;;;;10514118;28;20120;-76
2023/06/30 23:22:54;;;;;;;41.97;17.13;;;;;;;;;;10514225;28;20071;-76
2023/06/30 23:28:03;;;;;;;46.33;18.42;;;;;;;;;;10484769;28;20055;-74
2023/06/30 23:33:09;;;;;;;42.55;15.18;;;;;;;;;;10507787;28;20054;-76
2023/06/30 23:38:14;;;;;;;38.83;15.48;;;;;;;;;;10506627;28;20159;-76
2023/06/30 23:43:19;;;;;;;40.00;16.38;;;;;;;;;;10505376;28;20138;-75
2023/06/30 23:48:23;;;;;;;41.35;15.70;;;;;;;;;;10515210;28;20133;-75
2023/06/30 23:53:32;;;;;;;43.60;17.15;;;;;;;;;;10517056;28;20075;-74
2023/06/30 23:58:40;;;;;;;43.97;18.23;;;;;;;;;;10526882;28;20044;-75
